Columbus, Ohio
Traffic Map
Current Weather Conditions
Columbus, Ohio
Scattered Clouds
Scattered Clouds
45°
Feels Like: 45°
Wind Chill: 45° Ceiling: Unl
Heat Index: 45° Visibility: 10mi
Dew Point: 39° Wind: 0mph
Humidity: 80% Direction: ° ()
Pressure: 30.01in Gusts: 0mph
Raw Report DataKCMH 250651Z 00000KT 10SM FEW150 SCT250 07/04 A3001 RMK AO2 SLP163 T00720039
Traffic Incident Summary
Active as of:
Severity:
Category:
InformationThere was an issue retrieving the traffic information for this location. Please try a different location or try again shortly.
Advertisements
Track Severe Weather on mobile